Portada
METAR-TAF:

METAR-TAF

Aeroports :

Jammu, Índia

latitud: 32-41-21N, longitud: 74-50-15E, altitud: 314 m

METAR: manca

Hora: 14:12 (08:42 UTC)

Pronòstic

L'informe es va fer fa 5 hores i 12 minuts, a les 03:30 UTC
Pronòstic vàlid del 22 a les 06 UTC al 22 a les 18 UTC
Vent 5 kt del Nord/Nord-Est
Visibilitat: 6000 m
Escasses núvols a una alçada de 2500 ft
Evolucionant progressivament
l' 22 a les 07 UTC al 22 a les 09 UTC
Vent 2 kt amb direcció variable

TAF: VIJU 220330Z 2206/2218 03005KT 6000 FEW025 BECMG 2207/2209 VRB02KT

Observacions i pronòstics meteorològics de més de 4000 aeroports (METAR i TAF).

Les estacions disponibles són els punts grocs i vermells al mapa.

Posi el ratolí al punt desitjat per veure el nom de l'estació.

Feu clic per veure les observacions i els pronòstics meteorològics.

Per canviar el mapa: feu clic els botons verds amb una creu de color negre per apropar; al botó verd amb un guió per allunyar la imatge; o en les fletxes verdes per a mapes adjacents.


METAR-TAF: